sensor_id;sensor_type;location;lat;lon;timestamp;pressure;altitude;pressure_sealevel;temperature;humidity
12793;BME280;6460;42.684;23.260;2023-09-19T05:28:00;94888.66;;;16.82;95.86
12793;BME280;6460;42.684;23.260;2023-09-19T05:30:29;94882.09;;;16.93;95.91
12793;BME280;6460;42.684;23.260;2023-09-19T05:32:58;94888.28;;;17.01;95.36
12793;BME280;6460;42.684;23.260;2023-09-19T05:35:26;94883.63;;;17.02;95.56
12793;BME280;6460;42.684;23.260;2023-09-19T05:37:54;94875.84;;;17.11;95.03
12793;BME280;6460;42.684;23.260;2023-09-19T05:40:22;94876.25;;;17.16;94.49
12793;BME280;6460;42.684;23.260;2023-09-19T05:42:50;94875.84;;;17.21;94.67
12793;BME280;6460;42.684;23.260;2023-09-19T05:45:20;94869.66;;;17.31;96.91
12793;BME280;6460;42.684;23.260;2023-09-19T05:47:49;94875.03;;;17.45;95.55
12793;BME280;6460;42.684;23.260;2023-09-19T05:50:18;94873.50;;;17.41;92.76
12793;BME280;6460;42.684;23.260;2023-09-19T05:52:51;94871.91;;;17.65;91.59
12793;BME280;6460;42.684;23.260;2023-09-19T05:55:18;94879.25;;;17.75;90.81
12793;BME280;6460;42.684;23.260;2023-09-19T05:57:49;94881.19;;;17.85;90.10
12793;BME280;6460;42.684;23.260;2023-09-19T06:00:19;94874.22;;;17.80;89.43
12793;BME280;6460;42.684;23.260;2023-09-19T06:02:50;94869.50;;;17.91;89.86
12793;BME280;6460;42.684;23.260;2023-09-19T06:05:19;94863.63;;;18.00;88.12
12793;BME280;6460;42.684;23.260;2023-09-19T06:07:48;94871.03;;;18.00;88.84
12793;BME280;6460;42.684;23.260;2023-09-19T06:10:16;94862.31;;;18.33;94.32
12793;BME280;6460;42.684;23.260;2023-09-19T06:12:47;94858.22;;;18.69;88.28
12793;BME280;6460;42.684;23.260;2023-09-19T06:15:15;94859.75;;;18.70;87.73
12793;BME280;6460;42.684;23.260;2023-09-19T06:17:49;94858.91;;;18.80;85.86
12793;BME280;6460;42.684;23.260;2023-09-19T06:20:17;94855.88;;;19.19;84.55
12793;BME280;6460;42.684;23.260;2023-09-19T06:22:46;94856.13;;;19.32;82.01
12793;BME280;6460;42.684;23.260;2023-09-19T06:25:15;94855.03;;;19.26;81.43
12793;BME280;6460;42.684;23.260;2023-09-19T06:27:45;94844.84;;;19.74;82.65
12793;BME280;6460;42.684;23.260;2023-09-19T06:30:13;94843.94;;;19.84;79.61
12793;BME280;6460;42.684;23.260;2023-09-19T06:32:42;94852.94;;;19.81;78.67
12793;BME280;6460;42.684;23.260;2023-09-19T06:35:12;94851.91;;;19.68;78.66
12793;BME280;6460;42.684;23.260;2023-09-19T06:37:41;94856.38;;;19.85;81.23
12793;BME280;6460;42.684;23.260;2023-09-19T06:40:10;94858.00;;;19.79;78.95
12793;BME280;6460;42.684;23.260;2023-09-19T06:42:40;94848.34;;;20.05;79.79
12793;BME280;6460;42.684;23.260;2023-09-19T06:45:10;94853.72;;;20.12;76.28
12793;BME280;6460;42.684;23.260;2023-09-19T06:47:39;94854.28;;;20.00;76.33
12793;BME280;6460;42.684;23.260;2023-09-19T06:50:06;94857.94;;;19.86;76.75
12793;BME280;6460;42.684;23.260;2023-09-19T06:52:40;94865.34;;;20.20;81.08
12793;BME280;6460;42.684;23.260;2023-09-19T06:55:08;94867.16;;;20.60;79.54
12793;BME280;6460;42.684;23.260;2023-09-19T06:57:39;94858.63;;;20.81;74.47
12793;BME280;6460;42.684;23.260;2023-09-19T07:00:07;94862.13;;;20.82;73.66
12793;BME280;6460;42.684;23.260;2023-09-19T07:02:41;94856.31;;;21.03;73.01
12793;BME280;6460;42.684;23.260;2023-09-19T07:05:09;94861.31;;;20.85;71.85
12793;BME280;6460;42.684;23.260;2023-09-19T07:07:37;94873.09;;;20.78;73.25
12793;BME280;6460;42.684;23.260;2023-09-19T07:10:07;94860.84;;;20.90;72.95
12793;BME280;6460;42.684;23.260;2023-09-19T07:12:37;94857.44;;;20.82;71.43
12793;BME280;6460;42.684;23.260;2023-09-19T07:15:06;94857.97;;;20.74;72.17
12793;BME280;6460;42.684;23.260;2023-09-19T07:17:34;94868.53;;;20.72;73.64
12793;BME280;6460;42.684;23.260;2023-09-19T07:20:02;94861.00;;;20.79;73.16
12793;BME280;6460;42.684;23.260;2023-09-19T07:22:34;94866.63;;;20.95;71.50
12793;BME280;6460;42.684;23.260;2023-09-19T07:25:07;94861.88;;;20.99;71.07
12793;BME280;6460;42.684;23.260;2023-09-19T07:27:35;94862.16;;;21.05;71.11
12793;BME280;6460;42.684;23.260;2023-09-19T07:30:04;94866.81;;;21.08;69.64
12793;BME280;6460;42.684;23.260;2023-09-19T07:32:32;94866.84;;;21.04;70.51
12793;BME280;6460;42.684;23.260;2023-09-19T07:35:01;94865.78;;;20.98;70.98
12793;BME280;6460;42.684;23.260;2023-09-19T07:37:29;94861.31;;;21.12;70.38
12793;BME280;6460;42.684;23.260;2023-09-19T07:39:59;94867.13;;;21.14;69.24
12793;BME280;6460;42.684;23.260;2023-09-19T07:42:30;94866.44;;;21.06;69.79
12793;BME280;6460;42.684;23.260;2023-09-19T07:44:59;94872.06;;;20.95;70.07
12793;BME280;6460;42.684;23.260;2023-09-19T07:47:27;94862.50;;;21.07;70.62
12793;BME280;6460;42.684;23.260;2023-09-19T07:49:56;94872.53;;;21.17;70.27
12793;BME280;6460;42.684;23.260;2023-09-19T07:52:24;94862.25;;;21.25;70.44
12793;BME280;6460;42.684;23.260;2023-09-19T07:54:53;94869.19;;;21.29;69.45
12793;BME280;6460;42.684;23.260;2023-09-19T07:57:23;94872.59;;;21.37;69.25
12793;BME280;6460;42.684;23.260;2023-09-19T07:59:52;94864.63;;;21.46;68.91
12793;BME280;6460;42.684;23.260;2023-09-19T08:02:20;94860.94;;;21.56;68.54
12793;BME280;6460;42.684;23.260;2023-09-19T08:04:48;94855.81;;;21.35;69.29
12793;BME280;6460;42.684;23.260;2023-09-19T08:07:18;94847.38;;;21.26;70.02
12793;BME280;6460;42.684;23.260;2023-09-19T08:09:46;94839.56;;;21.28;70.11
12793;BME280;6460;42.684;23.260;2023-09-19T08:12:14;94840.19;;;21.35;70.72
12793;BME280;6460;42.684;23.260;2023-09-19T08:14:43;94842.53;;;21.37;70.52
12793;BME280;6460;42.684;23.260;2023-09-19T08:17:12;94847.94;;;21.40;69.94
12793;BME280;6460;42.684;23.260;2023-09-19T08:19:40;94840.78;;;21.46;70.09
12793;BME280;6460;42.684;23.260;2023-09-19T08:22:10;94827.47;;;21.68;69.81
12793;BME280;6460;42.684;23.260;2023-09-19T08:24:38;94835.41;;;21.82;67.27
12793;BME280;6460;42.684;23.260;2023-09-19T08:27:09;94831.84;;;22.05;67.08
12793;BME280;6460;42.684;23.260;2023-09-19T08:29:38;94843.66;;;22.38;65.97
12793;BME280;6460;42.684;23.260;2023-09-19T08:32:06;94846.44;;;22.74;64.18
12793;BME280;6460;42.684;23.260;2023-09-19T08:34:36;94850.47;;;22.85;63.54
12793;BME280;6460;42.684;23.260;2023-09-19T08:37:04;94848.50;;;23.02;62.00
12793;BME280;6460;42.684;23.260;2023-09-19T08:39:33;94843.78;;;23.02;62.19
12793;BME280;6460;42.684;23.260;2023-09-19T08:42:03;94840.03;;;22.60;63.42
12793;BME280;6460;42.684;23.260;2023-09-19T08:44:36;94831.44;;;22.94;62.79
12793;BME280;6460;42.684;23.260;2023-09-19T08:47:10;94829.81;;;23.29;62.08
12793;BME280;6460;42.684;23.260;2023-09-19T08:49:52;94830.94;;;23.15;61.79
12793;BME280;6460;42.684;23.260;2023-09-19T08:52:25;94824.44;;;23.09;62.04
12793;BME280;6460;42.684;23.260;2023-09-19T08:54:59;94830.38;;;23.37;63.80
12793;BME280;6460;42.684;23.260;2023-09-19T08:57:33;94827.19;;;23.70;60.02
12793;BME280;6460;42.684;23.260;2023-09-19T09:00:03;94834.59;;;24.15;62.02
12793;BME280;6460;42.684;23.260;2023-09-19T09:02:37;94825.59;;;24.14;56.55
12793;BME280;6460;42.684;23.260;2023-09-19T09:05:09;94831.50;;;24.13;56.56
12793;BME280;6460;42.684;23.260;2023-09-19T09:07:37;94823.16;;;23.88;56.86
12793;BME280;6460;42.684;23.260;2023-09-19T09:10:06;94827.75;;;23.78;57.10
12793;BME280;6460;42.684;23.260;2023-09-19T09:12:35;94821.78;;;23.67;58.31
12793;BME280;6460;42.684;23.260;2023-09-19T09:15:07;94814.44;;;23.64;58.60
12793;BME280;6460;42.684;23.260;2023-09-19T09:17:37;94823.16;;;24.16;56.67
12793;BME280;6460;42.684;23.260;2023-09-19T09:20:08;94811.88;;;24.27;56.57
12793;BME280;6460;42.684;23.260;2023-09-19T09:22:35;94809.56;;;24.26;56.29
12793;BME280;6460;42.684;23.260;2023-09-19T09:25:06;94805.59;;;24.14;56.68
12793;BME280;6460;42.684;23.260;2023-09-19T09:27:33;94805.50;;;24.17;56.45
12793;BME280;6460;42.684;23.260;2023-09-19T09:30:00;94800.44;;;24.29;55.85
12793;BME280;6460;42.684;23.260;2023-09-19T09:32:29;94796.59;;;24.26;55.16
12793;BME280;6460;42.684;23.260;2023-09-19T09:35:00;94788.81;;;24.25;56.90
12793;BME280;6460;42.684;23.260;2023-09-19T09:37:31;94789.69;;;24.47;56.03
12793;BME280;6460;42.684;23.260;2023-09-19T09:40:00;94785.28;;;24.62;55.00
12793;BME280;6460;42.684;23.260;2023-09-19T09:42:45;94789.47;;;24.79;52.55
12793;BME280;6460;42.684;23.260;2023-09-19T09:45:13;94773.63;;;24.83;53.31
12793;BME280;6460;42.684;23.260;2023-09-19T09:47:46;94779.56;;;24.69;54.14
12793;BME280;6460;42.684;23.260;2023-09-19T09:50:28;94777.03;;;24.74;53.82
12793;BME280;6460;42.684;23.260;2023-09-19T09:53:19;94772.13;;;24.82;53.68
12793;BME280;6460;42.684;23.260;2023-09-19T09:56:03;94777.47;;;25.11;52.50
12793;BME280;6460;42.684;23.260;2023-09-19T09:58:33;94767.44;;;25.51;51.40
12793;BME280;6460;42.684;23.260;2023-09-19T10:01:03;94774.28;;;25.34;50.67
12793;BME280;6460;42.684;23.260;2023-09-19T10:03:37;94763.66;;;25.23;51.62
12793;BME280;6460;42.684;23.260;2023-09-19T10:06:11;94762.44;;;25.24;51.48
12793;BME280;6460;42.684;23.260;2023-09-19T10:09:02;94764.78;;;25.13;52.06
12793;BME280;6460;42.684;23.260;2023-09-19T10:11:41;94755.59;;;25.29;52.33
12793;BME280;6460;42.684;23.260;2023-09-19T10:14:11;94758.56;;;25.35;52.71
12793;BME280;6460;42.684;23.260;2023-09-19T10:16:43;94764.59;;;25.42;51.84
12793;BME280;6460;42.684;23.260;2023-09-19T10:19:16;94758.16;;;25.58;50.95
12793;BME280;6460;42.684;23.260;2023-09-19T10:21:51;94756.44;;;25.51;51.61
12793;BME280;6460;42.684;23.260;2023-09-19T10:24:23;94759.78;;;25.68;50.00
12793;BME280;6460;42.684;23.260;2023-09-19T10:26:53;94764.78;;;25.48;50.54
12793;BME280;6460;42.684;23.260;2023-09-19T10:29:21;94755.50;;;25.33;51.21
12793;BME280;6460;42.684;23.260;2023-09-19T10:31:50;94756.03;;;25.27;50.79
12793;BME280;6460;42.684;23.260;2023-09-19T10:34:20;94758.72;;;25.18;52.22
12793;BME280;6460;42.684;23.260;2023-09-19T10:36:51;94755.44;;;25.11;51.53
12793;BME280;6460;42.684;23.260;2023-09-19T10:39:19;94755.56;;;25.07;51.95
12793;BME280;6460;42.684;23.260;2023-09-19T10:41:50;94757.75;;;25.12;51.93
12793;BME280;6460;42.684;23.260;2023-09-19T10:44:24;94747.97;;;24.99;52.87
12793;BME280;6460;42.684;23.260;2023-09-19T10:46:52;94737.66;;;24.90;52.17
12793;BME280;6460;42.684;23.260;2023-09-19T10:49:20;94729.66;;;24.83;53.30
12793;BME280;6460;42.684;23.260;2023-09-19T10:51:50;94738.63;;;24.96;52.95
12793;BME280;6460;42.684;23.260;2023-09-19T10:54:22;94740.59;;;25.08;51.68
12793;BME280;6460;42.684;23.260;2023-09-19T10:56:54;94738.53;;;25.00;51.76
12793;BME280;6460;42.684;23.260;2023-09-19T10:59:25;94737.97;;;24.92;52.56
12793;BME280;6460;42.684;23.260;2023-09-19T11:01:58;94734.50;;;24.79;51.91
12793;BME280;6460;42.684;23.260;2023-09-19T11:04:28;94734.81;;;24.81;52.27
12793;BME280;6460;42.684;23.260;2023-09-19T11:07:01;94726.97;;;24.92;52.55
12793;BME280;6460;42.684;23.260;2023-09-19T11:09:50;94729.69;;;25.17;51.71
12793;BME280;6460;42.684;23.260;2023-09-19T11:12:51;94721.81;;;25.28;50.69
12793;BME280;6460;42.684;23.260;2023-09-19T11:18:54;94722.72;;;25.47;50.32
12793;BME280;6460;42.684;23.260;2023-09-19T11:21:52;94716.84;;;25.36;49.61
12793;BME280;6460;42.684;23.260;2023-09-19T11:24:30;94717.22;;;25.25;50.23
12793;BME280;6460;42.684;23.260;2023-09-19T11:27:11;94723.50;;;25.48;49.66
12793;BME280;6460;42.684;23.260;2023-09-19T11:29:41;94710.72;;;25.54;49.39
12793;BME280;6460;42.684;23.260;2023-09-19T11:32:08;94710.22;;;25.68;49.36
12793;BME280;6460;42.684;23.260;2023-09-19T11:34:44;94701.88;;;25.81;48.69
12793;BME280;6460;42.684;23.260;2023-09-19T11:40:35;94693.41;;;25.97;48.76
12793;BME280;6460;42.684;23.260;2023-09-19T11:43:32;94687.53;;;25.86;48.91
12793;BME280;6460;42.684;23.260;2023-09-19T11:46:10;94675.06;;;26.03;48.37
12793;BME280;6460;42.684;23.260;2023-09-19T11:48:40;94674.44;;;25.99;48.26
12793;BME280;6460;42.684;23.260;2023-09-19T11:51:19;94678.63;;;26.12;48.42
12793;BME280;6460;42.684;23.260;2023-09-19T11:53:50;94677.19;;;26.29;48.50
12793;BME280;6460;42.684;23.260;2023-09-19T11:56:18;94671.88;;;26.44;46.86
12793;BME280;6460;42.684;23.260;2023-09-19T11:58:46;94676.00;;;26.40;45.77
12793;BME280;6460;42.684;23.260;2023-09-19T12:01:29;94669.53;;;26.34;46.63
12793;BME280;6460;42.684;23.260;2023-09-19T12:03:58;94660.66;;;26.29;47.18
12793;BME280;6460;42.684;23.260;2023-09-19T12:06:28;94661.63;;;26.45;46.42
12793;BME280;6460;42.684;23.260;2023-09-19T12:08:58;94652.78;;;26.68;46.45
12793;BME280;6460;42.684;23.260;2023-09-19T12:11:29;94651.13;;;26.70;46.63
12793;BME280;6460;42.684;23.260;2023-09-19T12:13:59;94648.22;;;27.28;45.43
12793;BME280;6460;42.684;23.260;2023-09-19T12:16:28;94646.19;;;27.74;44.12
12793;BME280;6460;42.684;23.260;2023-09-19T12:18:57;94639.50;;;28.17;43.86
12793;BME280;6460;42.684;23.260;2023-09-19T12:21:26;94631.25;;;28.65;40.99
12793;BME280;6460;42.684;23.260;2023-09-19T12:23:59;94623.13;;;28.85;40.71
12793;BME280;6460;42.684;23.260;2023-09-19T12:26:27;94619.53;;;28.94;40.16
12793;BME280;6460;42.684;23.260;2023-09-19T12:28:55;94618.22;;;29.04;40.96
12793;BME280;6460;42.684;23.260;2023-09-19T12:31:23;94612.88;;;29.38;40.51
12793;BME280;6460;42.684;23.260;2023-09-19T12:33:56;94609.91;;;29.57;38.50
12793;BME280;6460;42.684;23.260;2023-09-19T12:36:24;94605.13;;;29.72;38.63
12793;BME280;6460;42.684;23.260;2023-09-19T12:38:56;94606.28;;;29.80;38.34
12793;BME280;6460;42.684;23.260;2023-09-19T12:41:25;94610.75;;;30.21;37.38
12793;BME280;6460;42.684;23.260;2023-09-19T12:43:53;94612.75;;;30.56;36.00
12793;BME280;6460;42.684;23.260;2023-09-19T12:46:21;94612.06;;;30.40;35.80
12793;BME280;6460;42.684;23.260;2023-09-19T12:49:16;94606.81;;;30.83;34.44
12793;BME280;6460;42.684;23.260;2023-09-19T12:51:45;94612.75;;;30.56;34.57
12793;BME280;6460;42.684;23.260;2023-09-19T12:54:13;94604.38;;;30.50;34.94
12793;BME280;6460;42.684;23.260;2023-09-19T12:56:42;94604.47;;;30.41;35.24
12793;BME280;6460;42.684;23.260;2023-09-19T12:59:11;94595.09;;;30.53;35.17
12793;BME280;6460;42.684;23.260;2023-09-19T13:01:39;94585.03;;;30.76;35.21
12793;BME280;6460;42.684;23.260;2023-09-19T13:04:14;94589.91;;;31.01;34.10
12793;BME280;6460;42.684;23.260;2023-09-19T13:06:45;94588.19;;;30.89;34.03
12793;BME280;6460;42.684;23.260;2023-09-19T13:09:14;94586.81;;;31.19;34.34
12793;BME280;6460;42.684;23.260;2023-09-19T13:11:43;94591.03;;;31.61;34.15
12793;BME280;6460;42.684;23.260;2023-09-19T13:14:15;94586.22;;;31.87;33.34
12793;BME280;6460;42.684;23.260;2023-09-19T13:16:54;94580.66;;;31.87;32.97
12793;BME280;6460;42.684;23.260;2023-09-19T13:19:36;94573.69;;;32.03;33.01
12793;BME280;6460;42.684;23.260;2023-09-19T13:22:42;94572.16;;;32.02;32.53
12793;BME280;6460;42.684;23.260;2023-09-19T13:25:13;94566.59;;;31.65;33.10
12793;BME280;6460;42.684;23.260;2023-09-19T13:27:41;94563.34;;;32.03;33.05
12793;BME280;6460;42.684;23.260;2023-09-19T13:30:11;94567.56;;;31.93;32.96
12793;BME280;6460;42.684;23.260;2023-09-19T13:32:39;94561.81;;;32.02;32.46
12793;BME280;6460;42.684;23.260;2023-09-19T13:35:07;94571.44;;;32.43;32.02
12793;BME280;6460;42.684;23.260;2023-09-19T13:37:38;94565.00;;;32.58;31.96
12793;BME280;6460;42.684;23.260;2023-09-19T13:40:07;94568.41;;;32.41;32.07
12793;BME280;6460;42.684;23.260;2023-09-19T13:42:35;94562.00;;;32.67;31.72
12793;BME280;6460;42.684;23.260;2023-09-19T13:45:04;94564.19;;;32.15;32.34
12793;BME280;6460;42.684;23.260;2023-09-19T13:47:31;94557.44;;;31.59;33.21
12793;BME280;6460;42.684;23.260;2023-09-19T13:49:59;94557.41;;;31.07;34.23
12793;BME280;6460;42.684;23.260;2023-09-19T13:52:27;94558.66;;;31.06;34.98
12793;BME280;6460;42.684;23.260;2023-09-19T13:54:58;94561.81;;;31.19;34.35
12793;BME280;6460;42.684;23.260;2023-09-19T13:57:25;94557.13;;;31.05;34.63
12793;BME280;6460;42.684;23.260;2023-09-19T13:59:53;94546.66;;;30.94;34.96
12793;BME280;6460;42.684;23.260;2023-09-19T14:02:21;94558.59;;;30.80;35.36
12793;BME280;6460;42.684;23.260;2023-09-19T14:04:48;94553.31;;;30.62;35.86
12793;BME280;6460;42.684;23.260;2023-09-19T14:07:15;94556.22;;;30.73;36.11
12793;BME280;6460;42.684;23.260;2023-09-19T14:09:44;94560.72;;;31.11;35.17
12793;BME280;6460;42.684;23.260;2023-09-19T14:12:13;94557.22;;;31.36;34.44
12793;BME280;6460;42.684;23.260;2023-09-19T14:14:40;94552.56;;;31.54;34.00
12793;BME280;6460;42.684;23.260;2023-09-19T14:17:08;94551.25;;;31.49;34.13
12793;BME280;6460;42.684;23.260;2023-09-19T14:19:35;94553.09;;;31.32;34.41
12793;BME280;6460;42.684;23.260;2023-09-19T14:22:03;94548.75;;;31.00;35.24
12793;BME280;6460;42.684;23.260;2023-09-19T14:24:33;94549.69;;;31.42;34.08
12793;BME280;6460;42.684;23.260;2023-09-19T14:27:00;94543.53;;;31.59;34.49
12793;BME280;6460;42.684;23.260;2023-09-19T14:29:31;94539.66;;;31.51;33.57
12793;BME280;6460;42.684;23.260;2023-09-19T14:31:58;94535.59;;;31.20;34.74
12793;BME280;6460;42.684;23.260;2023-09-19T14:34:25;94537.69;;;31.31;34.22
12793;BME280;6460;42.684;23.260;2023-09-19T14:36:53;94542.66;;;31.21;34.11
12793;BME280;6460;42.684;23.260;2023-09-19T14:39:21;94534.06;;;31.19;34.08
12793;BME280;6460;42.684;23.260;2023-09-19T14:41:49;94540.19;;;31.03;34.68
12793;BME280;6460;42.684;23.260;2023-09-19T14:44:16;94537.53;;;30.94;34.90
12793;BME280;6460;42.684;23.260;2023-09-19T14:46:45;94539.38;;;30.97;34.92
12793;BME280;6460;42.684;23.260;2023-09-19T14:49:12;94540.06;;;30.72;35.33
12793;BME280;6460;42.684;23.260;2023-09-19T14:51:41;94535.22;;;30.67;35.57
12793;BME280;6460;42.684;23.260;2023-09-19T14:54:09;94531.97;;;30.68;35.39
12793;BME280;6460;42.684;23.260;2023-09-19T14:56:37;94531.47;;;30.50;35.62
12793;BME280;6460;42.684;23.260;2023-09-19T14:59:04;94532.28;;;30.35;35.94
12793;BME280;6460;42.684;23.260;2023-09-19T15:01:32;94525.47;;;30.16;36.50
12793;BME280;6460;42.684;23.260;2023-09-19T15:04:01;94535.03;;;30.15;36.77
12793;BME280;6460;42.684;23.260;2023-09-19T15:06:28;94519.25;;;30.21;37.10
12793;BME280;6460;42.684;23.260;2023-09-19T15:08:55;94521.03;;;30.24;36.74
12793;BME280;6460;42.684;23.260;2023-09-19T15:11:23;94519.44;;;30.18;36.76
12793;BME280;6460;42.684;23.260;2023-09-19T15:13:52;94521.59;;;29.93;36.84
12793;BME280;6460;42.684;23.260;2023-09-19T15:16:19;94520.19;;;29.69;37.13
12793;BME280;6460;42.684;23.260;2023-09-19T15:18:48;94519.44;;;29.68;37.66
12793;BME280;6460;42.684;23.260;2023-09-19T15:21:19;94509.72;;;29.58;38.10
12793;BME280;6460;42.684;23.260;2023-09-19T15:23:46;94512.50;;;29.44;38.17
12793;BME280;6460;42.684;23.260;2023-09-19T15:26:14;94509.16;;;29.39;38.61
12793;BME280;6460;42.684;23.260;2023-09-19T15:28:46;94511.22;;;28.86;40.05
12793;BME280;6460;42.684;23.260;2023-09-19T15:31:14;94508.84;;;28.94;39.97
12793;BME280;6460;42.684;23.260;2023-09-19T15:33:41;94511.34;;;29.06;39.32
12793;BME280;6460;42.684;23.260;2023-09-19T15:36:10;94509.41;;;28.98;39.25
12793;BME280;6460;42.684;23.260;2023-09-19T15:38:59;94515.63;;;29.07;39.02
12793;BME280;6460;42.684;23.260;2023-09-19T15:41:29;94521.34;;;28.89;39.62
12793;BME280;6460;42.684;23.260;2023-09-19T15:43:58;94515.53;;;28.87;39.75
12793;BME280;6460;42.684;23.260;2023-09-19T15:46:26;94521.81;;;28.87;39.62
12793;BME280;6460;42.684;23.260;2023-09-19T15:48:55;94524.84;;;28.75;40.18
12793;BME280;6460;42.684;23.260;2023-09-19T15:51:22;94536.38;;;28.50;41.06
12793;BME280;6460;42.684;23.260;2023-09-19T15:53:51;94535.03;;;28.45;40.97
12793;BME280;6460;42.684;23.260;2023-09-19T15:56:21;94537.97;;;28.42;40.96
12793;BME280;6460;42.684;23.260;2023-09-19T15:58:50;94541.38;;;28.13;42.06
12793;BME280;6460;42.684;23.260;2023-09-19T16:01:19;94537.00;;;27.97;42.85
12793;BME280;6460;42.684;23.260;2023-09-19T16:03:48;94532.97;;;28.07;42.62
12793;BME280;6460;42.684;23.260;2023-09-19T16:06:16;94541.88;;;28.02;43.03
12793;BME280;6460;42.684;23.260;2023-09-19T16:08:46;94551.44;;;27.92;43.54
12793;BME280;6460;42.684;23.260;2023-09-19T16:11:14;94545.59;;;27.57;45.00
12793;BME280;6460;42.684;23.260;2023-09-19T16:13:43;94545.75;;;27.63;45.03
12793;BME280;6460;42.684;23.260;2023-09-19T16:16:12;94547.28;;;27.55;45.67
12793;BME280;6460;42.684;23.260;2023-09-19T16:18:45;94559.09;;;27.55;45.91
12793;BME280;6460;42.684;23.260;2023-09-19T16:21:14;94556.22;;;27.41;46.73
12793;BME280;6460;42.684;23.260;2023-09-19T16:23:45;94559.31;;;27.33;47.17
12793;BME280;6460;42.684;23.260;2023-09-19T16:26:12;94556.69;;;27.30;47.39
12793;BME280;6460;42.684;23.260;2023-09-19T16:28:40;94559.78;;;27.23;47.97
12793;BME280;6460;42.684;23.260;2023-09-19T16:31:09;94556.41;;;27.10;48.39
12793;BME280;6460;42.684;23.260;2023-09-19T16:33:39;94557.22;;;26.83;49.60
12793;BME280;6460;42.684;23.260;2023-09-19T16:36:10;94557.81;;;26.60;50.77
12793;BME280;6460;42.684;23.260;2023-09-19T16:38:38;94562.41;;;26.45;51.64
12793;BME280;6460;42.684;23.260;2023-09-19T16:41:07;94561.16;;;26.37;51.85
12793;BME280;6460;42.684;23.260;2023-09-19T16:43:34;94569.56;;;26.42;51.52
12793;BME280;6460;42.684;23.260;2023-09-19T16:46:03;94570.81;;;26.32;52.20
12793;BME280;6460;42.684;23.260;2023-09-19T16:48:35;94567.06;;;26.17;53.31
12793;BME280;6460;42.684;23.260;2023-09-19T16:51:03;94567.91;;;25.96;54.29
12793;BME280;6460;42.684;23.260;2023-09-19T16:53:32;94572.53;;;26.08;54.15
12793;BME280;6460;42.684;23.260;2023-09-19T16:56:02;94574.19;;;25.96;54.94
12793;BME280;6460;42.684;23.260;2023-09-19T16:58:29;94570.19;;;25.88;55.11
12793;BME280;6460;42.684;23.260;2023-09-19T17:00:58;94571.69;;;25.80;55.79
12793;BME280;6460;42.684;23.260;2023-09-19T17:03:26;94576.25;;;25.74;56.08
12793;BME280;6460;42.684;23.260;2023-09-19T17:05:58;94577.75;;;25.66;57.10
12793;BME280;6460;42.684;23.260;2023-09-19T17:08:25;94582.81;;;25.67;56.97
12793;BME280;6460;42.684;23.260;2023-09-19T17:11:01;94578.97;;;25.65;56.92
12793;BME280;6460;42.684;23.260;2023-09-19T17:13:28;94579.09;;;25.61;56.77
12793;BME280;6460;42.684;23.260;2023-09-19T17:16:02;94579.50;;;25.51;57.34
12793;BME280;6460;42.684;23.260;2023-09-19T17:18:31;94578.31;;;25.52;57.45
12793;BME280;6460;42.684;23.260;2023-09-19T17:21:00;94572.72;;;25.43;57.59
12793;BME280;6460;42.684;23.260;2023-09-19T17:23:28;94574.31;;;25.31;58.79
12793;BME280;6460;42.684;23.260;2023-09-19T17:26:03;94572.94;;;25.26;58.95
12793;BME280;6460;42.684;23.260;2023-09-19T17:28:31;94572.94;;;25.05;60.92
12793;BME280;6460;42.684;23.260;2023-09-19T17:30:59;94576.50;;;25.14;60.47
12793;BME280;6460;42.684;23.260;2023-09-19T17:33:27;94573.00;;;25.14;60.72
12793;BME280;6460;42.684;23.260;2023-09-19T17:36:07;94577.34;;;25.02;61.40
12793;BME280;6460;42.684;23.260;2023-09-19T17:38:36;94589.72;;;24.98;61.47
12793;BME280;6460;42.684;23.260;2023-09-19T17:41:04;94593.78;;;24.93;61.66
12793;BME280;6460;42.684;23.260;2023-09-19T17:43:33;94592.94;;;24.84;61.23
12793;BME280;6460;42.684;23.260;2023-09-19T17:46:09;94590.34;;;24.67;62.60
12793;BME280;6460;42.684;23.260;2023-09-19T17:48:37;94594.31;;;24.66;61.70
12793;BME280;6460;42.684;23.260;2023-09-19T17:51:07;94591.47;;;24.57;62.88
12793;BME280;6460;42.684;23.260;2023-09-19T17:53:35;94596.22;;;24.57;62.04
12793;BME280;6460;42.684;23.260;2023-09-19T17:56:03;94609.13;;;24.47;63.03
12793;BME280;6460;42.684;23.260;2023-09-19T17:58:31;94609.28;;;24.18;68.47
12793;BME280;6460;42.684;23.260;2023-09-19T18:01:07;94611.88;;;24.35;65.84
12793;BME280;6460;42.684;23.260;2023-09-19T18:03:36;94605.28;;;24.32;63.42
12793;BME280;6460;42.684;23.260;2023-09-19T18:06:03;94610.56;;;24.27;63.32
12793;BME280;6460;42.684;23.260;2023-09-19T18:08:33;94613.66;;;24.16;64.17
12793;BME280;6460;42.684;23.260;2023-09-19T18:11:00;94612.75;;;24.06;65.16
12793;BME280;6460;42.684;23.260;2023-09-19T18:13:28;94612.00;;;24.06;66.49
12793;BME280;6460;42.684;23.260;2023-09-19T18:15:55;94617.94;;;24.04;65.41
12793;BME280;6460;42.684;23.260;2023-09-19T18:18:24;94616.28;;;23.69;66.62
12793;BME280;6460;42.684;23.260;2023-09-19T18:20:51;94623.06;;;23.52;68.25
12793;BME280;6460;42.684;23.260;2023-09-19T18:23:20;94614.75;;;23.68;67.96
12793;BME280;6460;42.684;23.260;2023-09-19T18:25:48;94622.75;;;23.62;68.57
12793;BME280;6460;42.684;23.260;2023-09-19T18:28:16;94627.69;;;23.55;69.77
12793;BME280;6460;42.684;23.260;2023-09-19T18:30:44;94625.19;;;23.60;70.20
12793;BME280;6460;42.684;23.260;2023-09-19T18:33:12;94628.78;;;23.45;70.54
12793;BME280;6460;42.684;23.260;2023-09-19T18:35:40;94630.66;;;23.48;70.17
12793;BME280;6460;42.684;23.260;2023-09-19T18:38:07;94638.66;;;23.55;69.61
12793;BME280;6460;42.684;23.260;2023-09-19T18:40:35;94636.47;;;23.50;70.36
12793;BME280;6460;42.684;23.260;2023-09-19T18:43:04;94633.28;;;23.51;69.97
12793;BME280;6460;42.684;23.260;2023-09-19T18:45:31;94643.69;;;23.44;70.75
12793;BME280;6460;42.684;23.260;2023-09-19T18:47:58;94646.88;;;23.55;69.43
12793;BME280;6460;42.684;23.260;2023-09-19T18:50:27;94641.94;;;23.50;69.33